createdAt,value
2022-08-05T00:02:07.823Z,90.92
2022-08-05T00:04:40.296Z,91.31
2022-08-05T00:07:26.913Z,90.21
2022-08-05T00:09:54.603Z,90.67
2022-08-05T00:12:21.693Z,89.96
2022-08-05T00:14:51.699Z,90.14
2022-08-05T00:17:28.621Z,89.95
2022-08-05T00:20:01.880Z,89.64
2022-08-05T00:22:29.946Z,90.71
2022-08-05T00:24:58.079Z,90.36
2022-08-05T00:27:28.403Z,89.41
2022-08-05T00:30:04.459Z,89.62
2022-08-05T00:32:31.650Z,89.92
2022-08-05T00:35:06.968Z,89.94
2022-08-05T00:37:50.355Z,90.72
2022-08-05T00:40:26.639Z,91.13
2022-08-05T00:42:57.257Z,90.47
2022-08-05T00:45:37.821Z,90.76
2022-08-05T00:48:09.237Z,92.19
2022-08-05T00:50:36.615Z,93.17
2022-08-05T00:53:03.557Z,93.98
2022-08-05T00:55:42.753Z,94.02
2022-08-05T00:58:19.259Z,95.26
2022-08-05T01:00:50.232Z,96.38
2022-08-05T01:03:22.855Z,96.31
2022-08-05T01:05:51.541Z,95.90
2022-08-05T01:08:39.190Z,94.78
2022-08-05T01:11:24.308Z,93.30
2022-08-05T01:14:28.480Z,94.73
2022-08-05T01:17:17.967Z,94.76
2022-08-05T01:20:02.241Z,94.80
2022-08-05T01:22:38.569Z,95.47
2022-08-05T01:25:39.877Z,95.47
2022-08-05T01:28:08.811Z,96.07
2022-08-05T01:30:40.347Z,95.47
2022-08-05T01:33:20.040Z,95.36
2022-08-05T01:35:51.318Z,94.41
2022-08-05T01:38:24.882Z,96.09
2022-08-05T01:40:57.539Z,93.89
2022-08-05T01:43:25.431Z,96.49
2022-08-05T01:45:56.185Z,97.15
2022-08-05T01:48:26.923Z,97.35
2022-08-05T01:50:56.635Z,96.53
2022-08-05T01:53:54.962Z,97.01
2022-08-05T01:58:13.076Z,98.05
2022-08-05T01:59:04.722Z,97.44
2022-08-05T02:01:40.134Z,97.93
2022-08-05T02:04:10.276Z,97.27
2022-08-05T02:06:39.227Z,99.02
2022-08-05T02:09:07.520Z,99.08
2022-08-05T02:11:59.937Z,100.00
2022-08-05T02:14:32.514Z,99.19
2022-08-05T02:18:27.978Z,99.49
2022-08-05T02:20:20.800Z,98.95
2022-08-05T02:22:57.349Z,99.31
2022-08-05T02:25:49.438Z,99.87
2022-08-05T02:28:28.974Z,99.16
2022-08-05T02:31:02.714Z,98.83
2022-08-05T02:33:38.456Z,98.15
2022-08-05T02:36:13.367Z,99.62
2022-08-05T02:38:45.236Z,99.90
2022-08-05T02:41:22.975Z,99.43
2022-08-05T02:44:06.404Z,99.71
2022-08-05T02:46:53.385Z,99.99
2022-08-05T02:49:37.108Z,100.00
2022-08-05T02:52:08.576Z,100.00
2022-08-05T02:54:37.514Z,100.00
2022-08-05T02:58:09.760Z,100.00
2022-08-05T02:59:57.768Z,100.00
2022-08-05T03:02:37.603Z,100.00
2022-08-05T03:05:07.755Z,100.00
2022-08-05T03:07:40.423Z,100.00
2022-08-05T03:10:24.756Z,100.00
2022-08-05T03:12:53.089Z,100.00
2022-08-05T03:15:21.461Z,100.00
2022-08-05T03:17:53.993Z,100.00
2022-08-05T03:20:22.635Z,100.00
2022-08-05T03:22:51.139Z,100.00
2022-08-05T03:25:33.269Z,100.00
2022-08-05T03:28:09.259Z,100.00
2022-08-05T03:30:38.297Z,100.00
2022-08-05T03:33:08.487Z,100.00
2022-08-05T03:35:41.069Z,100.00
2022-08-05T03:38:12.563Z,100.00
2022-08-05T03:40:45.322Z,100.00
2022-08-05T03:43:58.421Z,100.00
2022-08-05T03:46:02.633Z,100.00
2022-08-05T03:48:29.942Z,100.00
2022-08-05T03:52:39.253Z,100.00
2022-08-05T03:55:50.508Z,100.00
2022-08-05T03:56:50.007Z,100.00
2022-08-05T03:59:24.666Z,100.00
2022-08-05T04:01:54.391Z,100.00
2022-08-05T04:04:30.963Z,100.00
2022-08-05T04:06:59.467Z,100.00
2022-08-05T04:09:28.299Z,100.00
2022-08-05T04:11:56.766Z,100.00
2022-08-05T04:14:30.280Z,100.00
2022-08-05T04:16:58.773Z,100.00
2022-08-05T04:19:25.708Z,100.00
2022-08-05T04:22:09.703Z,100.00
2022-08-05T04:24:52.879Z,100.00
2022-08-05T04:27:33.138Z,100.00
2022-08-05T04:30:08.439Z,94.86
2022-08-05T04:32:36.477Z,80.48
2022-08-05T04:35:04.858Z,71.26
2022-08-05T04:38:02.481Z,65.80
2022-08-05T04:40:20.061Z,61.64
2022-08-05T04:42:46.869Z,57.80
2022-08-05T04:45:14.177Z,55.63
2022-08-05T04:47:49.917Z,53.38
2022-08-05T04:50:34.528Z,51.24
2022-08-05T04:53:04.496Z,51.04
2022-08-05T04:56:14.625Z,47.68
2022-08-05T04:58:21.596Z,47.94
2022-08-05T05:00:50.741Z,47.69
2022-08-05T05:03:20.395Z,46.76
2022-08-05T05:06:39.617Z,45.40
2022-08-05T05:08:36.924Z,43.96
2022-08-05T05:11:10.601Z,43.39
2022-08-05T05:13:43.296Z,42.76
2022-08-05T05:16:10.646Z,42.28
2022-08-05T05:18:38.545Z,42.99
2022-08-05T05:21:05.667Z,41.35
2022-08-05T05:24:01.862Z,40.96
2022-08-05T05:26:19.939Z,43.39
2022-08-05T05:28:55.717Z,50.29
2022-08-05T05:31:23.893Z,56.35
2022-08-05T05:33:59.328Z,60.36
2022-08-05T05:36:29.810Z,62.69
2022-08-05T05:38:57.536Z,65.54
2022-08-05T05:41:24.546Z,68.12
2022-08-05T05:43:56.918Z,68.00
2022-08-05T05:46:25.928Z,68.93
2022-08-05T05:48:52.730Z,70.10
2022-08-05T05:51:21.987Z,69.52
2022-08-05T05:53:58.147Z,70.93
2022-08-05T05:56:32.936Z,74.31
2022-08-05T05:59:05.240Z,71.98
2022-08-05T06:01:38.235Z,71.35
2022-08-05T06:04:14.390Z,74.05
2022-08-05T06:06:46.606Z,72.12
2022-08-05T06:09:16.803Z,59.90
2022-08-05T06:12:02.118Z,48.13
2022-08-05T06:14:34.782Z,41.18
2022-08-05T06:17:22.237Z,37.97
2022-08-05T06:19:57.190Z,36.07
2022-08-05T06:22:33.609Z,33.90
2022-08-05T06:25:01.119Z,33.48
2022-08-05T06:28:11.537Z,32.51
2022-08-05T06:30:34.618Z,32.13
2022-08-05T06:33:01.599Z,31.99
2022-08-05T06:36:04.115Z,31.87
2022-08-05T06:38:15.443Z,31.22
2022-08-05T06:40:44.672Z,30.80
2022-08-05T06:43:59.084Z,30.64
2022-08-05T06:46:03.870Z,30.49
2022-08-05T06:48:52.907Z,30.08
2022-08-05T06:51:29.375Z,29.91
2022-08-05T06:53:58.951Z,29.17
2022-08-05T06:56:27.020Z,29.92
2022-08-05T06:58:54.760Z,29.55
2022-08-05T07:01:21.966Z,28.73
2022-08-05T07:03:49.670Z,28.87
2022-08-05T07:06:19.212Z,28.77
2022-08-05T07:08:51.938Z,28.13
2022-08-05T07:11:22.109Z,27.75
2022-08-05T07:14:20.630Z,27.65
2022-08-05T07:18:01.238Z,27.59
2022-08-05T07:20:30.255Z,27.05
2022-08-05T07:22:33.595Z,26.61
2022-08-05T07:25:23.720Z,27.29
2022-08-05T07:28:00.661Z,26.35
2022-08-05T07:30:33.635Z,25.77
2022-08-05T07:33:09.770Z,26.00
2022-08-05T07:36:04.000Z,26.37
2022-08-05T07:38:34.149Z,26.63
2022-08-05T07:42:08.805Z,25.29
2022-08-05T07:43:59.041Z,25.04
2022-08-05T07:46:27.574Z,24.74
2022-08-05T07:49:04.047Z,24.37
2022-08-05T07:51:40.758Z,23.93
2022-08-05T07:54:15.335Z,23.56
2022-08-05T07:57:13.949Z,23.65
2022-08-05T07:59:38.160Z,23.60
2022-08-05T08:02:15.847Z,24.03
2022-08-05T08:04:45.495Z,23.48
2022-08-05T08:07:13.401Z,23.21
2022-08-05T08:09:40.273Z,22.94
2022-08-05T08:12:14.630Z,22.68
2022-08-05T08:14:47.420Z,22.71
2022-08-05T08:17:16.230Z,22.08
2022-08-05T08:20:22.214Z,22.39
2022-08-05T08:22:32.539Z,21.81
2022-08-05T08:25:03.316Z,21.49
2022-08-05T08:27:40.304Z,21.40
2022-08-05T08:30:29.580Z,21.46
2022-08-05T08:33:02.632Z,20.79
2022-08-05T08:35:41.027Z,20.87
2022-08-05T08:38:08.589Z,20.27
2022-08-05T08:40:39.446Z,20.61
2022-08-05T08:45:20.893Z,20.58
2022-08-05T08:45:54.771Z,20.39
2022-08-05T08:49:03.555Z,20.25
2022-08-05T08:52:01.836Z,20.35
2022-08-05T08:53:56.527Z,20.60
2022-08-05T08:56:27.147Z,20.80
2022-08-05T08:58:54.296Z,20.83
2022-08-05T09:01:21.318Z,20.42
2022-08-05T09:03:57.560Z,19.98
2022-08-05T09:06:30.619Z,19.98
2022-08-05T09:09:02.178Z,20.13
2022-08-05T09:11:50.909Z,20.06
2022-08-05T09:14:56.618Z,20.32
2022-08-05T09:17:15.862Z,20.63
2022-08-05T09:20:02.836Z,20.18
2022-08-05T09:23:19.220Z,20.43
2022-08-05T09:26:02.469Z,21.66
2022-08-05T09:28:33.757Z,21.35
2022-08-05T09:31:18.277Z,22.65
2022-08-05T09:33:59.315Z,22.58
2022-08-05T09:36:45.939Z,22.42
2022-08-05T09:39:39.425Z,22.74
2022-08-05T09:42:17.539Z,22.64
2022-08-05T09:44:56.345Z,22.74
2022-08-05T09:47:48.011Z,23.28
2022-08-05T09:50:17.880Z,23.39
2022-08-05T09:52:45.409Z,23.17
2022-08-05T09:55:57.130Z,23.74
2022-08-05T09:58:00.377Z,23.50
2022-08-05T10:00:29.718Z,23.09
2022-08-05T10:02:58.648Z,23.56
2022-08-05T10:05:28.841Z,23.43
2022-08-05T10:08:35.289Z,25.09
2022-08-05T10:10:54.900Z,23.81
2022-08-05T10:13:47.133Z,23.75
2022-08-05T10:16:37.571Z,24.08
2022-08-05T10:19:09.357Z,24.45
2022-08-05T10:21:40.287Z,24.02
2022-08-05T10:24:13.351Z,23.15
2022-08-05T10:26:51.207Z,24.03
2022-08-05T10:29:24.114Z,23.77
2022-08-05T10:32:53.762Z,23.67
2022-08-05T10:35:01.098Z,23.59
2022-08-05T10:37:44.819Z,23.84
2022-08-05T10:40:44.878Z,24.08
2022-08-05T10:43:37.307Z,23.73
2022-08-05T10:46:08.662Z,24.71
2022-08-05T10:48:56.535Z,24.04
2022-08-05T10:51:29.290Z,23.86
2022-08-05T10:54:05.847Z,23.39
2022-08-05T10:56:56.165Z,23.51
2022-08-05T11:00:03.551Z,23.82
2022-08-05T11:02:37.620Z,24.07
2022-08-05T11:05:09.477Z,23.67
2022-08-05T11:08:02.545Z,23.99
2022-08-05T11:10:32.905Z,24.04
2022-08-05T11:13:01.349Z,23.71
2022-08-05T11:16:00.325Z,23.62
2022-08-05T11:18:24.420Z,23.63
2022-08-05T11:20:52.494Z,23.42
2022-08-05T11:24:02.818Z,23.56
2022-08-05T11:26:28.815Z,23.30
2022-08-05T11:29:11.552Z,23.66
2022-08-05T11:31:58.579Z,23.60
2022-08-05T11:34:47.447Z,24.03
2022-08-05T11:38:29.839Z,24.49
2022-08-05T11:41:13.986Z,24.02
2022-08-05T11:44:04.725Z,23.82
2022-08-05T11:47:10.349Z,23.70
2022-08-05T11:49:35.545Z,23.62
2022-08-05T11:52:11.641Z,23.88
2022-08-05T11:54:40.352Z,23.99
2022-08-05T11:57:25.364Z,24.42
2022-08-05T11:59:54.487Z,23.71
2022-08-05T12:02:31.854Z,23.81
2022-08-05T12:05:07.306Z,23.92
2022-08-05T12:08:07.814Z,23.84
2022-08-05T12:10:43.053Z,24.04
2022-08-05T12:13:47.456Z,24.19
2022-08-05T12:16:14.797Z,24.08
2022-08-05T12:18:48.696Z,23.53
2022-08-05T12:21:30.634Z,24.19
2022-08-05T12:24:06.910Z,23.99
2022-08-05T12:26:36.140Z,24.16
2022-08-05T12:29:09.370Z,24.02
2022-08-05T12:31:43.703Z,24.01
2022-08-05T12:34:21.491Z,24.13
2022-08-05T12:36:52.460Z,24.46
2022-08-05T12:39:19.559Z,23.81
2022-08-05T12:41:46.948Z,23.79
2022-08-05T12:44:32.776Z,23.79
2022-08-05T12:47:02.050Z,23.88
2022-08-05T12:50:04.070Z,23.82
2022-08-05T12:52:39.081Z,24.32
2022-08-05T12:55:26.585Z,23.83
2022-08-05T12:58:49.001Z,23.56
2022-08-05T13:02:02.672Z,24.46
2022-08-05T13:03:38.875Z,23.79
2022-08-05T13:06:11.700Z,24.63
2022-08-05T13:08:39.133Z,24.02
2022-08-05T13:11:07.999Z,24.58
2022-08-05T13:14:06.302Z,24.45
2022-08-05T13:16:27.821Z,24.61
2022-08-05T13:18:57.901Z,24.83
2022-08-05T13:21:28.128Z,24.67
2022-08-05T13:24:05.135Z,24.95
2022-08-05T13:26:32.123Z,24.41
2022-08-05T13:28:59.239Z,24.48
2022-08-05T13:31:33.771Z,24.80
2022-08-05T13:34:23.890Z,24.88
2022-08-05T13:36:53.748Z,24.81
2022-08-05T13:39:24.638Z,24.53
2022-08-05T13:42:14.425Z,24.84
2022-08-05T13:44:46.278Z,24.83
2022-08-05T13:47:35.409Z,25.22
2022-08-05T13:50:04.572Z,25.37
2022-08-05T13:52:35.211Z,24.64
2022-08-05T13:55:02.847Z,24.62
2022-08-05T13:57:51.011Z,24.41
2022-08-05T14:00:26.849Z,24.79
2022-08-05T14:02:58.379Z,24.10
2022-08-05T14:05:48.177Z,24.30
2022-08-05T14:08:20.441Z,24.96
2022-08-05T14:10:48.874Z,25.41
2022-08-05T14:13:16.126Z,24.59
2022-08-05T14:16:08.192Z,24.79
2022-08-05T14:18:29.884Z,25.30
2022-08-05T14:20:56.667Z,24.75
2022-08-05T14:23:25.873Z,24.47
2022-08-05T14:25:58.593Z,24.75
2022-08-05T14:28:30.322Z,24.58
2022-08-05T14:30:58.435Z,25.58
2022-08-05T14:33:25.242Z,25.94
2022-08-05T14:35:52.401Z,25.09
2022-08-05T14:38:32.714Z,24.45
2022-08-05T14:41:07.674Z,25.01
2022-08-05T14:44:01.570Z,24.65
2022-08-05T14:46:28.117Z,25.39
2022-08-05T14:48:56.959Z,25.44
2022-08-05T14:51:24.024Z,24.45
2022-08-05T14:54:26.953Z,24.59
2022-08-05T14:56:44.355Z,25.86
2022-08-05T14:59:15.385Z,25.15
2022-08-05T15:01:48.029Z,25.30
2022-08-05T15:04:16.812Z,25.51
2022-08-05T15:06:48.998Z,25.04
2022-08-05T15:09:16.584Z,24.52
2022-08-05T15:12:03.883Z,24.47
2022-08-05T15:14:35.861Z,24.62
2022-08-05T15:17:18.990Z,24.77
2022-08-05T15:19:56.972Z,25.35
2022-08-05T15:22:26.967Z,25.24
2022-08-05T15:24:55.136Z,25.35
2022-08-05T15:27:21.856Z,24.94
2022-08-05T15:29:53.084Z,25.62
2022-08-05T15:32:27.417Z,24.59
2022-08-05T15:34:56.978Z,24.57
2022-08-05T15:38:08.582Z,24.66
2022-08-05T15:40:59.157Z,24.84
2022-08-05T15:43:09.389Z,24.90
2022-08-05T15:45:45.979Z,24.81
2022-08-05T15:48:14.231Z,25.30
2022-08-05T15:50:43.563Z,24.93
2022-08-05T15:53:12.635Z,24.73
2022-08-05T15:56:03.809Z,25.89
2022-08-05T15:58:29.979Z,25.08
2022-08-05T16:01:04.262Z,25.61
2022-08-05T16:03:43.993Z,25.15
2022-08-05T16:06:11.499Z,25.44
2022-08-05T16:08:38.625Z,25.17
2022-08-05T16:11:07.204Z,26.17
2022-08-05T16:13:35.301Z,26.34
2022-08-05T16:16:03.861Z,26.00
2022-08-05T16:18:33.111Z,26.41
2022-08-05T16:21:04.327Z,26.43
2022-08-05T16:23:33.004Z,26.05
2022-08-05T16:26:18.413Z,26.99
2022-08-05T16:28:46.949Z,26.13
2022-08-05T16:31:13.723Z,26.15
2022-08-05T16:33:42.002Z,26.74
2022-08-05T16:36:09.338Z,27.05
2022-08-05T16:38:36.175Z,27.33
2022-08-05T16:42:12.096Z,27.36
2022-08-05T16:43:56.576Z,27.90
2022-08-05T16:46:24.815Z,27.95
2022-08-05T16:48:52.659Z,28.14
2022-08-05T16:51:19.639Z,28.45
2022-08-05T16:54:05.332Z,28.38
2022-08-05T16:56:36.293Z,28.04
2022-08-05T16:59:08.419Z,27.76
2022-08-05T17:01:53.909Z,28.57
2022-08-05T17:04:23.819Z,28.52
2022-08-05T17:06:53.155Z,28.52
2022-08-05T17:09:20.568Z,28.94
2022-08-05T17:11:48.849Z,28.92
2022-08-05T17:14:22.196Z,29.37
2022-08-05T17:17:00.900Z,29.56
2022-08-05T17:19:29.474Z,29.79
2022-08-05T17:21:57.356Z,29.78
2022-08-05T17:24:35.141Z,30.02
2022-08-05T17:27:07.954Z,29.88
2022-08-05T17:29:41.056Z,29.95
2022-08-05T17:32:17.170Z,30.35
2022-08-05T17:34:47.475Z,30.64
2022-08-05T17:37:40.617Z,30.96
2022-08-05T17:40:02.167Z,31.04
2022-08-05T17:42:31.877Z,31.47
2022-08-05T17:45:18.123Z,31.86
2022-08-05T17:47:52.934Z,32.67
2022-08-05T17:50:27.708Z,32.53
2022-08-05T17:52:59.076Z,33.22
2022-08-05T17:55:27.463Z,33.27
2022-08-05T17:58:04.593Z,33.88
2022-08-05T18:00:34.598Z,33.82
2022-08-05T18:03:02.391Z,34.04
2022-08-05T18:05:35.344Z,34.30
2022-08-05T18:08:02.506Z,34.86
2022-08-05T18:10:32.224Z,35.00
2022-08-05T18:13:01.936Z,35.73
2022-08-05T18:15:38.495Z,36.01
2022-08-05T18:18:11.112Z,38.95
2022-08-05T18:20:39.049Z,35.84
2022-08-05T18:23:09.036Z,35.88
2022-08-05T18:25:45.114Z,35.67
2022-08-05T18:28:16.136Z,36.26
2022-08-05T18:30:50.962Z,35.76
2022-08-05T18:33:22.953Z,36.06
2022-08-05T18:36:03.628Z,37.33
2022-08-05T18:38:34.602Z,37.67
2022-08-05T18:41:56.780Z,39.65
2022-08-05T18:43:49.496Z,40.51
2022-08-05T18:46:20.323Z,40.54
2022-08-05T18:48:51.919Z,41.64
2022-08-05T18:52:02.739Z,42.82
2022-08-05T18:54:32.852Z,41.19
2022-08-05T18:57:01.566Z,45.67
2022-08-05T18:59:43.924Z,46.07
2022-08-05T19:02:28.255Z,47.84
2022-08-05T19:05:03.220Z,45.26
2022-08-05T19:07:50.240Z,44.07
2022-08-05T19:10:28.142Z,42.58
2022-08-05T19:12:56.678Z,45.68
2022-08-05T19:15:58.199Z,46.19
2022-08-05T19:18:20.708Z,46.11
2022-08-05T19:20:51.944Z,45.65
2022-08-05T19:24:04.208Z,48.18
2022-08-05T19:26:08.620Z,47.83
2022-08-05T19:28:44.014Z,47.80
2022-08-05T19:31:13.217Z,47.15
2022-08-05T19:33:48.302Z,48.34
2022-08-05T19:36:29.344Z,51.27
2022-08-05T19:38:58.783Z,48.98
2022-08-05T19:41:58.231Z,48.62
2022-08-05T19:44:15.749Z,48.22
2022-08-05T19:46:43.621Z,47.49
2022-08-05T19:49:12.496Z,47.88
2022-08-05T19:52:04.498Z,49.34
2022-08-05T19:54:31.944Z,48.73
2022-08-05T19:57:09.887Z,51.52
2022-08-05T19:59:59.533Z,49.30
2022-08-05T20:02:27.821Z,49.75
2022-08-05T20:04:59.626Z,49.04
2022-08-05T20:07:46.744Z,49.37
2022-08-05T20:10:17.380Z,48.68
2022-08-05T20:12:49.699Z,47.59
2022-08-05T20:15:47.843Z,46.87
2022-08-05T20:18:10.936Z,48.70
2022-08-05T20:20:55.743Z,50.78
2022-08-05T20:23:39.899Z,47.04
2022-08-05T20:26:23.330Z,47.88
2022-08-05T20:28:55.857Z,48.34
2022-08-05T20:31:36.805Z,50.07
2022-08-05T20:34:10.966Z,50.55
2022-08-05T20:36:43.329Z,49.52
2022-08-05T20:39:13.280Z,50.42
2022-08-05T20:41:43.794Z,47.09
2022-08-05T20:44:17.506Z,47.42
2022-08-05T20:46:46.871Z,50.99
2022-08-05T20:49:14.067Z,53.79
2022-08-05T20:51:40.978Z,53.46
2022-08-05T20:54:13.982Z,52.15
2022-08-05T20:56:42.419Z,53.87
2022-08-05T20:59:14.137Z,55.61
2022-08-05T21:01:46.799Z,56.23
2022-08-05T21:04:14.181Z,56.43
2022-08-05T21:06:45.077Z,53.19
2022-08-05T21:09:14.409Z,55.25
2022-08-05T21:12:06.938Z,54.92
2022-08-05T21:14:35.284Z,55.85
2022-08-05T21:17:05.058Z,57.68
2022-08-05T21:19:47.354Z,58.10
2022-08-05T21:22:18.623Z,59.43
2022-08-05T21:24:52.042Z,61.44
2022-08-05T21:27:24.977Z,61.63
2022-08-05T21:29:55.692Z,61.21
2022-08-05T21:32:27.698Z,60.81
2022-08-05T21:35:16.701Z,63.36
2022-08-05T21:37:47.047Z,64.83
2022-08-05T21:40:14.466Z,65.44
2022-08-05T21:42:44.242Z,67.10
2022-08-05T21:45:12.462Z,64.99
2022-08-05T21:47:56.144Z,65.60
2022-08-05T21:50:26.115Z,67.97
2022-08-05T21:52:53.062Z,68.08
2022-08-05T21:55:43.091Z,69.02
2022-08-05T21:58:07.259Z,70.75
2022-08-05T22:00:37.481Z,71.16
2022-08-05T22:03:07.430Z,71.34
2022-08-05T22:05:48.373Z,71.54
2022-08-05T22:08:22.285Z,69.45
2022-08-05T22:10:51.077Z,70.37
2022-08-05T22:14:34.265Z,68.11
2022-08-05T22:16:20.359Z,69.83
2022-08-05T22:18:52.510Z,69.57
2022-08-05T22:21:20.099Z,68.35
2022-08-05T22:24:09.093Z,68.89
2022-08-05T22:26:58.598Z,70.53
2022-08-05T22:29:30.514Z,68.51
2022-08-05T22:32:02.913Z,72.49
2022-08-05T22:34:30.729Z,71.65
2022-08-05T22:36:58.770Z,71.40
2022-08-05T22:39:33.322Z,71.68
2022-08-05T22:42:09.518Z,72.40
2022-08-05T22:44:38.844Z,72.56
2022-08-05T22:47:06.000Z,72.33
2022-08-05T22:50:21.694Z,71.85
2022-08-05T22:52:30.291Z,69.48
2022-08-05T22:55:01.499Z,71.19
2022-08-05T22:57:36.192Z,72.22
2022-08-05T23:00:07.859Z,73.58
2022-08-05T23:02:39.795Z,76.49
2022-08-05T23:05:13.186Z,75.22
2022-08-05T23:07:45.244Z,72.73
2022-08-05T23:10:15.174Z,73.47
2022-08-05T23:12:43.749Z,72.93
2022-08-05T23:15:11.892Z,72.28
2022-08-05T23:18:00.689Z,76.53
2022-08-05T23:20:25.536Z,74.95
2022-08-05T23:22:55.815Z,76.00
2022-08-05T23:25:51.046Z,76.64
2022-08-05T23:28:11.006Z,74.58
2022-08-05T23:30:40.226Z,73.88
2022-08-05T23:33:16.453Z,76.85
2022-08-05T23:35:50.602Z,79.40
2022-08-05T23:38:18.025Z,79.72
2022-08-05T23:40:49.870Z,77.52
2022-08-05T23:43:25.814Z,78.51
2022-08-05T23:46:20.037Z,77.56
2022-08-05T23:49:00.942Z,79.24
2022-08-05T23:51:52.514Z,77.95
2022-08-05T23:54:30.502Z,78.46
2022-08-05T23:57:04.747Z,77.39
